WEATHER DATA

YESTERDAY
Time Temp. Dewp. Hum. Wind dir Wind speed Wind gust Bar. 1h Prec. 24h Prec.
00:06 5.1 3.9 92 270 0.3 0.6 996.7 0.0000 0.0000
00:16 5.1 3.9 92 0 0.6 996.9 0.0000 0.0000
00:26 5.1 3.9 92 90 0.3 0.6 996.9 0.0000 0.0000
00:36 5.1 3.9 92 0 0.6 996.9 0.0000 0.0000
00:46 5.2 4 92 135 0.3 1.1 997 0.0000 0.0000
00:56 5.2 4 92 45 0.3 0.6 997 0.0000 0.0000
01:06 5.2 4 92 18 0.3 1.4 997.1 0.0000 0.0000
01:16 5.2 4 92 149 0.3 0.6 997.2 0.0000 0.0000
01:27 5.2 4 92 161 0.3 1.1 997.3 0.0000 0.0000
01:37 5.2 4 92 153 0.3 1.1 997.4 0.0000 0.0000
01:49 5.2 4 92 0 0.6 997.3 0.3450 0.3000
01:59 5.2 4 92 90 0.3 0.6 997.3 0.5750 0.6000
02:09 5.2 4 92 0 0.6 997.2 0.8050 0.8000
02:19 5.2 4 92 135 0.3 0.6 997.3 0.9200 0.9000
02:29 5.2 4 92 59 0.3 0.6 997.3 1.1500 1.1000
02:39 5.2 4.2 93 225 0.3 0.6 997.2 1.1500 1.3000
02:50 5.2 4.2 93 90 0.3 0.6 997.2 1.0350 1.5000
03:00 5.2 4.2 93 90 0.3 0.6 997.2 0.9200 1.6000
03:10 5.2 4.2 93 90 0.3 0.6 997.2 0.8050 1.6000
03:20 5.2 4.2 93 135 0.3 0.6 997.2 0.6900 1.7000
03:30 5.2 4.2 93 135 0.3 0.6 997.2 0.4600 1.7000
03:40 5.2 4.2 93 153 0.3 0.6 997.3 0.3450 1.7000
03:50 5.1 4.1 93 171 0.3 0.6 997.4 0.2300 1.7000
04:01 5.1 4.1 93 123 0.3 0.6 997.5 0.2300 1.8000
04:10 5.1 4.1 93 0.3 0.6 997.5 0.1150 1.8000
04:20 5.1 4.1 93 143 0.3 0.6 997.4 0.1150 1.8000
04:30 5.1 4.1 93 90 0.3 0.6 997.4 0.1150 1.8000
04:41 5.1 4.1 93 135 0.3 1.1 997.4 0.1150 1.8000
04:51 5 4 93 142 0.3 0.6 997.4 0.0000 1.8000
05:00 5 4 93 135 0.3 0.6 997.4 0.0000 1.8000
05:11 4.9 3.9 93 135 0.3 0.6 997.4 0.0000 1.8000
05:21 4.9 3.9 93 146 0.3 0.6 997.5 0.0000 1.8000
05:31 4.8 3.8 93 145 0.3 0.6 997.7 0.0000 1.8000
05:41 4.8 3.8 93 0 0.6 997.8 0.0000 1.8000
05:51 4.8 3.8 93 168 0.3 0.6 997.9 0.0000 1.8000
06:01 4.8 3.8 93 0.3 1.1 997.9 0.0000 1.8000
06:11 4.8 3.8 93 135 0.3 0.6 998.1 0.0000 1.8000
06:22 4.8 3.8 93 11 0.3 0.6 998.1 0.0000 1.8000
06:32 4.9 3.9 93 90 0.3 0.6 998 0.0000 1.8000
06:42 4.8 3.8 93 135 0.3 0.6 998.3 0.0000 1.8000
06:51 4.8 3.8 93 90 0.3 0.6 998.4 0.0000 1.8000
07:02 4.8 3.8 93 90 0.3 1.1 998.3 0.0000 1.8000
07:12 4.8 3.8 93 0 0.6 998.4 0.0000 1.8000
07:22 4.8 3.8 93 90 0.3 0.6 998.5 0.0000 1.8000
07:32 4.7 3.7 93 135 0.3 0.6 998.7 0.0000 1.8000
07:42 4.7 3.7 93 180 0.3 1.1 999 0.0000 1.8000
07:52 4.7 3.7 93 90 0.3 0.6 999.2 0.0000 1.8000
08:02 4.6 3.6 93 90 0.3 0.6 999.3 0.0000 1.8000
08:13 4.6 3.6 93 90 0.3 0.6 999.5 0.0000 1.8000
08:23 4.7 3.7 93 135 0.3 0.6 999.6 0.0000 1.8000
08:32 4.7 3.7 93 135 0.3 0.6 999.7 0.0000 1.8000
08:43 4.8 3.8 93 315 0.3 1.7 999.8 0.0000 1.8000
08:53 4.8 3.8 93 26 0.3 0.6 999.9 0.0000 1.8000
09:03 4.9 3.9 93 45 0.3 1.1 999.8 0.0000 1.8000
09:13 5 4 93 59 0.3 0.6 999.8 0.0000 1.8000
09:23 5 4 93 285 0.6 1.4 999.8 0.0000 1.8000
09:33 5.1 4.1 93 39 0.3 1.1 999.8 0.0000 1.8000
09:43 5.3 4.3 93 60 0.3 1.1 1000 0.0000 1.8000
09:53 5.5 4.5 93 45 0.3 1.1 1000.3 0.0000 1.8000
10:04 5.6 4.6 93 90 0.3 1.1 1000.4 0.0000 1.8000
10:14 5.7 4.7 93 90 0.3 1.4 1000.5 0.0000 1.8000
10:23 5.8 4.8 93 12 0.3 1.1 1000.7 0.0000 1.8000
10:34 5.9 4.9 93 90 0.3 1.1 1001 0.0000 1.8000
10:44 6 5 93 90 0.3 1.1 1001.2 0.0000 1.8000
10:54 6.1 5.1 93 0 0.3 1.4 1001.3 0.0000 1.8000
11:04 6.2 5.2 93 45 0.3 1.1 1001.4 0.0000 1.8000
11:14 6.3 5.3 93 315 0.3 1.7 1001.5 0.0000 1.8000
11:24 6.5 5.5 93 14 0.3 1.1 1001.6 0.0000 1.8000
11:34 6.7 5.6 93 90 0.3 1.1 1001.7 0.0000 1.8000
11:45 6.9 5.8 93 45 0.3 1.4 1001.8 0.0000 1.8000
11:55 7.1 6 93 58 0.6 1.4 1002 0.0000 1.8000
12:04 7.2 6 92 45 0.6 1.4 1002 0.0000 1.8000
12:14 7.4 6.2 92 26 0.3 3.1 1002 0.0000 1.8000
12:25 7.6 6.4 92 90 0.3 1.4 1002 0.0000 1.8000
12:35 7.8 6.4 91 45 0.6 1.4 1002 0.0000 1.8000
12:45 7.9 6.5 91 90 0.3 1.4 1002.1 0.0000 1.8000
12:55 8.1 6.6 90 45 0.3 1.7 1002.2 0.0000 1.8000
13:05 8.2 6.5 89 39 0.3 1.4 1002.3 0.0000 1.8000
13:15 8.2 6.5 89 18 0.6 1.9 1002.4 0.0000 1.8000
13:25 8.3 6.4 88 30 0.6 1.4 1002.4 0.0000 1.8000
13:36 8.5 6.6 88 0 0.6 2.5 1002.5 0.0000 1.8000
13:46 8.6 6.6 87 22 0.6 1.9 1002.5 0.0000 1.8000
13:55 8.7 6.5 86 40 0.6 2.5 1002.6 0.0000 1.8000
14:06 8.7 6.3 85 45 1.1 2.8 1002.7 0.0000 1.8000
14:16 8.7 6.2 84 45 0.6 2.8 1002.8 0.0000 1.8000
14:26 8.6 5.9 83 34 0.6 1.9 1002.9 0.0000 1.8000
14:36 8.6 6.2 85 38 0.3 1.9 1002.9 0.0000 1.8000
14:46 8.7 6.3 85 54 0.6 1.9 1002.9 0.0000 1.8000
15:06 8.7 6 83 30 0.6 2.5 1003.3 0.0000 1.8000
15:16 8.9 6.2 83 90 0.3 1.7 1003.3 0.0000 1.8000
15:27 9.2 6.3 82 50 0.3 1.4 1003.4 0.0000 1.8000
15:36 9.4 6.3 81 57 0.6 1.9 1003.4 0.0000 1.8000
15:46 9.5 5.7 77 33 1.1 2.5 1003.5 0.0000 1.8000
15:57 9.5 6 79 26 0.3 1.4 1003.7 0.0000 1.8000
16:07 9.5 6 79 45 0.6 1.9 1003.8 0.0000 1.8000
16:17 9.6 6.3 80 57 0.3 1.9 1003.9 0.0000 1.8000
16:27 9.7 6.2 79 38 0.3 1.4 1004.4 0.0000 1.8000
16:37 9.8 6.3 79 33 0.3 1.1 1004.5 0.0000 1.8000
16:47 9.7 5.9 77 90 0.3 1.4 1004.6 0.0000 1.8000
16:57 9.6 5.8 77 40 0.6 1.9 1004.6 0.0000 1.8000
17:08 9.4 5.8 78 56 0.3 1.7 1004.6 0.0000 1.8000
17:18 9.2 5.4 77 315 0.3 1.7 1004.7 0.0000 1.8000
17:27 9 5.4 78 90 0.3 1.1 1005 0.0000 1.8000
17:37 8.8 5.2 78 45 0.3 1.4 1005.2 0.0000 1.8000
17:48 8.5 5.3 80 90 0.3 1.1 1005.5 0.0000 1.8000
17:58 8.2 5.1 81 90 0.3 1.1 1005.7 0.0000 1.8000
18:08 7.9 5 82 135 0.3 1.1 1005.8 0.0000 1.8000
18:18 7.6 4.9 83 90 0.3 1.1 1006 0.0000 1.8000
18:28 7.4 4.9 84 135 0.3 0.6 1006.1 0.0000 1.8000
18:38 7.2 4.9 85 90 0.3 0.6 1006.1 0.0000 1.8000
18:48 6.9 4.7 86 90 0.3 1.1 1006.3 0.0000 1.8000
18:59 6.7 4.7 87 90 0.3 0.6 1006.4 0.0000 1.8000
19:08 6.5 4.5 87 128 0.3 0.6 1006.6 0.0000 1.8000
19:18 6.2 4.2 87 90 0.3 0.6 1006.8 0.0000 1.8000
19:28 5.9 4.1 88 122 0.3 0.6 1007 0.0000 1.8000
19:39 5.6 3.8 88 167 0.3 1.1 1007.2 0.0000 1.8000
19:49 5.4 3.6 88 183 0.3 0.6 1007.4 0.0000 1.8000
19:58 5.1 3.4 89 198 0.3 0.6 1007.4 0.0000 1.8000
20:09 4.9 3.2 89 191 0.3 0.6 1007.6 0.0000 1.8000
20:19 4.7 3 89 209 0.3 0.6 1007.7 0.0000 1.8000
20:29 4.4 2.7 89 225 0.3 0.6 1007.7 0.0000 1.8000
20:39 4.2 2.7 90 225 0.3 0.6 1007.9 0.0000 1.8000
20:50 4 2.5 90 213 0.3 0.6 1008.1 0.0000 1.8000
20:59 3.8 2.3 90 0 0.6 1008.3 0.0000 1.8000
21:09 3.7 2.2 90 171 0.3 1.1 1008.4 0.0000 1.8000
21:20 3.5 2 90 0 0.6 1008.4 0.0000 1.8000
21:30 3.4 1.9 90 0.3 0.6 1008.5 0.0000 1.8000
21:40 3.2 1.7 90 210 0.3 0.6 1008.7 0.0000 1.8000
21:49 3.1 1.8 91 0 0.6 1008.9 0.0000 1.8000
22:01 2.9 1.6 91 0 0.3 1009.1 0.0000 1.8000
22:11 2.8 1.5 91 0 0.6 1009.1 0.0000 1.8000
22:21 2.7 1.4 91 180 0.3 0.6 1009.1 0.0000 1.8000
22:31 2.5 1.2 91 0 0.6 1009.2 0.0000 1.8000
22:42 2.4 1.1 91 0 0.6 1009.3 0.0000 1.8000
22:52 2.3 1 91 18 0.3 0.6 1009.4 0.0000 1.8000
23:01 2.2 0.9 91 0 0.6 1009.5 0.0000 1.8000
23:12 2 0.7 91 0 0.6 1009.6 0.0000 1.8000
23:22 1.9 0.6 91 0 0.6 1009.7 0.0000 1.8000
23:32 1.8 0.5 91 161 0.3 0.6 1009.8 0.0000 1.8000
23:42 1.8 0.6 92 11 0.3 0.6 1009.9 0.0000 1.8000
23:52 1.7 0.5 92 0.3 0.6 1010.2 0.0000 1.8000

DAY STATISTIC

2024-03-03
TEMPERATURE
AVERAGE
5.8
HIGH
9.8
16:37
LOW
1.7
23:52
PRESSURE
AVERAGE
1002.1
HIGH
1010.2
23:52
LOW
996.7
00:06
DEWPOINT
AVERAGE
4.3
HIGH
6.6
12:55
LOW
0.5
23:32
HUMIDITY
AVERAGE
90
HIGH
93
02:39
LOW
77
15:46
WIND SPEED
AVERAGE
0.3
HIGH
1.1
14:06
WIND GUST
AVERAGE
1.0
HIGH
3.1
12:14
WIND DIRECTION
PREVAILING
NE
24.8%
N
7.1
NE
24.8
E
21.3
SE
17.0
S
7.8
SW
4.3
W
1.4
NW
2.1
PRECIPITATION
RAIN HOUR
1.1
RAIN DAY
1.8
TEMPERATURE (°C)
LOW
1.7
HIGH
9.8
AVERAGE
5.8
PRESSURE (hpa)
LOW
996.7
HIGH
1010.2
AVERAGE
1002.1
DEVICE